createdAt,value
2022-07-26T00:00:15.492Z,35.03
2022-07-26T00:02:48.060Z,31.73
2022-07-26T00:05:26.347Z,33.17
2022-07-26T00:08:12.005Z,33.90
2022-07-26T00:10:45.962Z,32.27
2022-07-26T00:13:15.272Z,31.77
2022-07-26T00:15:44.158Z,30.47
2022-07-26T00:18:12.963Z,30.90
2022-07-26T00:20:43.338Z,30.53
2022-07-26T00:23:15.557Z,28.50
2022-07-26T00:25:48.070Z,28.50
2022-07-26T00:28:19.622Z,26.97
2022-07-26T00:30:54.001Z,25.93
2022-07-26T00:33:22.493Z,27.77
2022-07-26T00:35:52.240Z,29.40
2022-07-26T00:38:28.660Z,32.47
2022-07-26T00:41:10.048Z,34.80
2022-07-26T00:43:55.799Z,36.13
2022-07-26T00:46:24.471Z,35.77
2022-07-26T00:48:53.049Z,34.30
2022-07-26T00:51:23.451Z,34.37
2022-07-26T00:54:02.290Z,36.00
2022-07-26T00:56:36.668Z,35.00
2022-07-26T00:59:07.479Z,37.00
2022-07-26T01:02:16.886Z,36.33
2022-07-26T01:05:10.599Z,38.57
2022-07-26T01:07:42.371Z,41.27
2022-07-26T01:10:31.562Z,39.53
2022-07-26T01:13:03.297Z,44.70
2022-07-26T01:15:39.251Z,69.67
2022-07-26T01:18:08.094Z,77.07
2022-07-26T01:20:40.842Z,105.37
2022-07-26T01:23:22.245Z,99.27
2022-07-26T01:26:05.078Z,97.43
2022-07-26T01:28:40.067Z,94.53
2022-07-26T01:31:24.509Z,97.77
2022-07-26T01:33:56.260Z,90.20
2022-07-26T01:36:25.573Z,90.77
2022-07-26T01:38:56.157Z,91.93
2022-07-26T01:41:37.289Z,90.43
2022-07-26T01:44:08.886Z,87.27
2022-07-26T01:46:37.611Z,59.73
2022-07-26T01:49:07.320Z,46.90
2022-07-26T01:51:36.594Z,46.57
2022-07-26T01:54:13.297Z,44.17
2022-07-26T01:56:43.539Z,42.70
2022-07-26T01:59:22.674Z,45.93
2022-07-26T02:01:54.649Z,49.30
2022-07-26T02:04:40.287Z,62.90
2022-07-26T02:07:12.824Z,62.40
2022-07-26T02:09:44.762Z,65.30
2022-07-26T02:12:30.531Z,62.47
2022-07-26T02:15:10.768Z,61.03
2022-07-26T02:17:53.391Z,57.70
2022-07-26T02:20:23.068Z,62.57
2022-07-26T02:22:52.473Z,68.53
2022-07-26T02:25:23.210Z,71.87
2022-07-26T02:27:51.689Z,76.20
2022-07-26T02:30:33.432Z,74.27
2022-07-26T02:36:05.279Z,57.33
2022-07-26T02:38:46.676Z,76.37
2022-07-26T02:41:35.998Z,75.93
2022-07-26T02:44:05.940Z,80.07
2022-07-26T02:46:52.299Z,64.60
2022-07-26T02:49:23.869Z,70.37
2022-07-26T02:51:52.605Z,66.80
2022-07-26T02:54:21.422Z,66.10
2022-07-26T02:57:08.002Z,65.17
2022-07-26T02:59:38.839Z,66.20
2022-07-26T03:02:13.186Z,67.47
2022-07-26T03:04:42.451Z,63.83
2022-07-26T03:10:11.602Z,58.63
2022-07-26T03:12:43.257Z,59.43
2022-07-26T03:15:14.241Z,58.63
2022-07-26T03:17:43.081Z,53.63
2022-07-26T03:20:19.251Z,47.80
2022-07-26T03:22:53.160Z,45.53
2022-07-26T03:25:39.196Z,43.57
2022-07-26T03:28:09.848Z,43.80
2022-07-26T03:30:46.282Z,38.17
2022-07-26T03:33:34.908Z,36.63
2022-07-26T03:36:04.174Z,33.73
2022-07-26T03:38:40.170Z,34.17
2022-07-26T03:41:14.801Z,32.80
2022-07-26T03:43:51.630Z,31.43
2022-07-26T03:46:41.477Z,31.10
2022-07-26T03:49:48.586Z,32.40
2022-07-26T03:52:20.863Z,30.33
2022-07-26T03:54:50.050Z,32.07
2022-07-26T03:57:17.466Z,32.17
2022-07-26T03:59:50.298Z,30.63
2022-07-26T04:02:19.419Z,31.90
2022-07-26T04:04:49.199Z,30.93
2022-07-26T04:07:20.030Z,32.07
2022-07-26T04:09:59.454Z,31.13
2022-07-26T04:12:29.049Z,30.33
2022-07-26T04:15:00.645Z,29.70
2022-07-26T04:17:39.373Z,30.10
2022-07-26T04:20:11.814Z,30.87
2022-07-26T04:22:41.923Z,30.00
2022-07-26T04:25:19.047Z,30.27
2022-07-26T04:27:47.486Z,27.90
2022-07-26T04:30:23.953Z,28.27
2022-07-26T04:33:10.220Z,27.50
2022-07-26T04:38:29.081Z,24.53
2022-07-26T04:40:58.348Z,25.87
2022-07-26T04:43:37.002Z,23.70
2022-07-26T04:46:13.466Z,23.23
2022-07-26T04:48:42.394Z,23.83
2022-07-26T04:51:28.439Z,21.70
2022-07-26T04:53:56.675Z,21.13
2022-07-26T04:56:27.222Z,22.03
2022-07-26T04:58:57.973Z,21.63
2022-07-26T05:01:29.535Z,22.07
2022-07-26T05:03:58.311Z,21.03
2022-07-26T05:06:26.557Z,21.90
2022-07-26T05:08:55.699Z,22.13
2022-07-26T05:11:24.567Z,21.70
2022-07-26T05:13:53.563Z,20.90
2022-07-26T05:16:23.208Z,21.07
2022-07-26T05:18:53.778Z,21.30
2022-07-26T05:21:25.044Z,21.40
2022-07-26T05:23:53.442Z,19.70
2022-07-26T05:26:24.909Z,21.20
2022-07-26T05:28:54.503Z,21.00
2022-07-26T05:31:23.892Z,21.47
2022-07-26T05:33:55.480Z,20.83
2022-07-26T05:36:23.883Z,22.07
2022-07-26T05:38:52.706Z,21.20
2022-07-26T05:41:21.567Z,21.77
2022-07-26T05:43:50.209Z,21.30
2022-07-26T05:46:18.841Z,21.63
2022-07-26T05:48:47.711Z,22.40
2022-07-26T05:51:18.620Z,21.60
2022-07-26T05:53:53.580Z,21.30
2022-07-26T05:56:23.905Z,20.80
2022-07-26T05:58:54.851Z,20.93
2022-07-26T07:22:33.154Z,17.93
2022-07-26T07:25:14.845Z,18.27
2022-07-26T07:28:20.351Z,17.43
2022-07-26T07:46:54.748Z,17.67
2022-07-26T07:49:25.295Z,16.50
2022-07-26T07:51:55.891Z,17.00
2022-07-26T07:54:26.828Z,17.57
2022-07-26T07:57:04.149Z,16.90
2022-07-26T07:59:39.344Z,16.80
2022-07-26T08:02:15.789Z,17.20
2022-07-26T08:04:44.053Z,16.77
2022-07-26T08:07:15.665Z,17.27
2022-07-26T08:09:44.253Z,17.27
2022-07-26T08:12:12.604Z,16.83
2022-07-26T08:18:53.420Z,15.43
2022-07-26T08:21:48.565Z,16.70
2022-07-26T08:24:57.317Z,16.80
2022-07-26T08:27:41.110Z,17.07
2022-07-26T08:30:33.337Z,16.10
2022-07-26T08:33:40.852Z,16.77
2022-07-26T08:36:36.770Z,16.17
2022-07-26T08:39:51.587Z,17.20
2022-07-26T08:43:07.414Z,18.10
2022-07-26T08:46:08.194Z,17.50
2022-07-26T08:48:52.160Z,17.47
2022-07-26T08:51:53.577Z,16.87
2022-07-26T08:54:43.190Z,16.77
2022-07-26T08:57:37.246Z,17.50
2022-07-26T09:00:57.264Z,17.00
2022-07-26T09:03:59.460Z,16.63
2022-07-26T09:06:45.401Z,17.47
2022-07-26T09:09:13.893Z,17.93
2022-07-26T09:11:43.516Z,16.23
2022-07-26T09:14:11.726Z,16.63
2022-07-26T09:16:40.332Z,16.50
2022-07-26T09:19:19.661Z,16.93
2022-07-26T09:21:48.125Z,16.10
2022-07-26T09:24:31.761Z,16.60
2022-07-26T09:27:02.866Z,16.70
2022-07-26T09:29:32.271Z,16.80
2022-07-26T09:32:19.589Z,16.97
2022-07-26T09:34:53.196Z,16.47
2022-07-26T09:37:35.345Z,15.63
2022-07-26T09:40:06.028Z,16.37
2022-07-26T09:42:36.197Z,16.53
2022-07-26T09:45:16.014Z,16.90
2022-07-26T09:47:46.530Z,16.30
2022-07-26T09:50:18.957Z,17.30
2022-07-26T09:53:00.661Z,16.07
2022-07-26T09:55:40.691Z,16.90
2022-07-26T09:58:16.211Z,16.33
2022-07-26T10:00:44.925Z,19.20
2022-07-26T10:03:15.484Z,15.40
2022-07-26T10:05:45.858Z,16.23
2022-07-26T10:08:14.368Z,15.70
2022-07-26T10:10:47.338Z,15.80
2022-07-26T10:13:20.779Z,15.23
2022-07-26T10:15:51.378Z,15.80
2022-07-26T10:18:47.691Z,16.00
2022-07-26T10:21:49.091Z,16.30
2022-07-26T10:24:35.331Z,16.27
2022-07-26T10:27:20.496Z,17.03
2022-07-26T10:30:38.840Z,16.60
2022-07-26T10:33:28.059Z,16.63
2022-07-26T10:36:04.757Z,16.20
2022-07-26T10:38:37.838Z,16.10
2022-07-26T10:41:12.616Z,16.90
2022-07-26T10:43:43.551Z,16.30
2022-07-26T10:46:28.330Z,16.90
2022-07-26T10:48:57.751Z,16.50
2022-07-26T10:51:33.419Z,16.97
2022-07-26T10:54:02.263Z,17.13
2022-07-26T10:56:33.328Z,16.73
2022-07-26T10:59:02.469Z,16.00
2022-07-26T11:01:36.315Z,16.30
2022-07-26T11:04:05.039Z,16.10
2022-07-26T11:06:34.188Z,16.93
2022-07-26T11:09:12.526Z,15.83
2022-07-26T11:11:46.636Z,16.37
2022-07-26T11:14:18.335Z,15.80
2022-07-26T11:16:49.875Z,16.00
2022-07-26T11:19:19.753Z,15.87
2022-07-26T11:21:53.904Z,15.90
2022-07-26T11:24:23.012Z,15.73
2022-07-26T11:26:51.143Z,15.53
2022-07-26T11:29:38.735Z,15.87
2022-07-26T11:32:21.981Z,15.90
2022-07-26T11:35:00.953Z,16.40
2022-07-26T11:37:31.221Z,15.77
2022-07-26T11:39:59.484Z,16.67
2022-07-26T11:42:29.708Z,16.00
2022-07-26T11:44:57.966Z,15.87
2022-07-26T11:47:27.556Z,16.50
2022-07-26T11:50:14.311Z,15.90
2022-07-26T11:52:49.849Z,16.33
2022-07-26T11:55:27.348Z,16.70
2022-07-26T11:57:56.124Z,15.27
2022-07-26T12:00:25.026Z,15.47
2022-07-26T12:02:56.124Z,15.67
2022-07-26T12:05:26.908Z,14.50
2022-07-26T12:07:57.005Z,15.00
2022-07-26T12:10:28.598Z,15.17
2022-07-26T12:13:11.319Z,15.90
2022-07-26T12:15:50.899Z,15.83
2022-07-26T12:18:28.547Z,15.57
2022-07-26T12:21:06.212Z,17.03
2022-07-26T12:23:45.648Z,17.03
2022-07-26T12:26:24.729Z,17.00
2022-07-26T12:28:53.015Z,16.37
2022-07-26T12:31:25.395Z,16.70
2022-07-26T12:33:57.456Z,15.63
2022-07-26T12:36:27.906Z,15.77
2022-07-26T12:38:58.309Z,16.00
2022-07-26T12:41:34.467Z,15.60
2022-07-26T12:44:06.154Z,16.57
2022-07-26T12:46:35.107Z,15.87
2022-07-26T12:49:05.743Z,15.70
2022-07-26T12:51:34.381Z,16.20
2022-07-26T12:54:03.453Z,15.33
2022-07-26T12:56:33.933Z,16.23
2022-07-26T12:59:02.263Z,15.20
2022-07-26T13:01:33.389Z,14.83
2022-07-26T13:04:05.589Z,15.40
2022-07-26T13:06:33.875Z,15.50
2022-07-26T13:09:02.056Z,15.10
2022-07-26T13:11:30.313Z,15.17
2022-07-26T13:13:58.603Z,16.03
2022-07-26T13:16:26.795Z,15.57
2022-07-26T13:18:54.885Z,16.00
2022-07-26T13:21:25.128Z,15.67
2022-07-26T13:23:56.295Z,15.90
2022-07-26T13:26:24.530Z,15.57
2022-07-26T13:28:53.075Z,15.60
2022-07-26T13:31:21.418Z,15.03
2022-07-26T13:33:52.097Z,15.20
2022-07-26T13:36:22.376Z,15.90
2022-07-26T13:38:51.856Z,15.93
2022-07-26T13:41:20.078Z,15.23
2022-07-26T13:43:48.224Z,15.80
2022-07-26T13:46:16.719Z,15.43
2022-07-26T13:48:59.871Z,16.07
2022-07-26T13:51:45.023Z,15.90
2022-07-26T13:54:16.280Z,14.63
2022-07-26T13:56:44.896Z,14.77
2022-07-26T13:59:15.174Z,15.20
2022-07-26T14:01:46.095Z,15.63
2022-07-26T14:04:15.788Z,14.97
2022-07-26T14:06:47.031Z,15.80
2022-07-26T14:09:17.799Z,16.77
2022-07-26T14:11:48.221Z,14.60
2022-07-26T14:14:16.391Z,15.40
2022-07-26T14:16:48.155Z,15.40
2022-07-26T14:19:19.766Z,16.33
2022-07-26T14:21:59.257Z,15.67
2022-07-26T14:24:30.268Z,15.70
2022-07-26T14:26:59.541Z,16.10
2022-07-26T14:29:28.786Z,15.47
2022-07-26T14:31:57.088Z,15.00
2022-07-26T14:34:25.430Z,17.00
2022-07-26T14:36:55.701Z,15.60
2022-07-26T14:39:23.869Z,15.90
2022-07-26T14:41:53.345Z,15.63
2022-07-26T14:44:21.545Z,15.20
2022-07-26T14:46:51.736Z,16.03
2022-07-26T14:49:22.386Z,16.20
2022-07-26T14:51:50.756Z,16.47
2022-07-26T14:54:21.114Z,15.90
2022-07-26T14:56:49.352Z,16.00
2022-07-26T14:59:19.050Z,16.03
2022-07-26T15:01:47.417Z,16.07
2022-07-26T15:04:15.569Z,15.40
2022-07-26T15:06:43.688Z,18.00
2022-07-26T15:09:11.819Z,16.60
2022-07-26T15:11:40.953Z,16.03
2022-07-26T15:14:11.704Z,16.03
2022-07-26T15:16:41.531Z,15.70
2022-07-26T15:19:09.811Z,16.67
2022-07-26T15:21:37.912Z,16.90
2022-07-26T15:24:06.346Z,16.33
2022-07-26T15:26:34.549Z,15.83
2022-07-26T15:29:04.926Z,16.53
2022-07-26T15:31:36.607Z,17.77
2022-07-26T15:34:09.860Z,17.17
2022-07-26T15:36:40.526Z,18.20
2022-07-26T15:39:17.642Z,18.00
2022-07-26T15:41:47.153Z,18.23
2022-07-26T15:44:17.608Z,17.63
2022-07-26T15:46:48.002Z,18.97
2022-07-26T15:49:20.697Z,20.73
2022-07-26T15:51:49.890Z,19.87
2022-07-26T15:54:18.111Z,21.10
2022-07-26T15:56:46.225Z,20.77
2022-07-26T15:59:14.371Z,23.83
2022-07-26T16:01:42.916Z,24.63
2022-07-26T16:04:11.514Z,25.40
2022-07-26T16:06:43.996Z,26.53
2022-07-26T16:09:17.406Z,24.97
2022-07-26T16:11:46.955Z,24.60
2022-07-26T16:14:15.094Z,23.20
2022-07-26T16:16:43.342Z,22.43
2022-07-26T16:19:12.075Z,23.90
2022-07-26T16:21:40.827Z,26.27
2022-07-26T16:24:10.599Z,23.30
2022-07-26T16:26:38.815Z,21.70
2022-07-26T16:29:07.004Z,20.00
2022-07-26T16:31:36.935Z,23.57
2022-07-26T16:34:05.255Z,20.20
2022-07-26T16:36:33.669Z,20.97
2022-07-26T16:39:04.418Z,21.30
2022-07-26T16:41:34.048Z,20.80
2022-07-26T16:44:02.099Z,21.50
2022-07-26T16:46:30.461Z,22.10
2022-07-26T16:48:58.661Z,23.10
2022-07-26T16:51:27.150Z,22.30
2022-07-26T16:53:57.436Z,22.93
2022-07-26T16:56:27.890Z,21.47
2022-07-26T16:58:57.572Z,22.70
2022-07-26T17:01:25.868Z,21.13
2022-07-26T17:03:54.047Z,22.00
2022-07-26T17:06:22.532Z,21.07
2022-07-26T17:08:50.712Z,20.27
2022-07-26T17:11:18.782Z,21.00
2022-07-26T17:13:49.646Z,22.30
2022-07-26T17:16:21.591Z,22.23
2022-07-26T17:18:52.815Z,24.30
2022-07-26T17:21:21.024Z,23.90
2022-07-26T17:23:49.477Z,21.70
2022-07-26T17:26:17.935Z,19.87
2022-07-26T17:28:46.090Z,18.57
2022-07-26T17:31:14.305Z,18.53
2022-07-26T17:33:46.071Z,18.60
2022-07-26T17:36:24.628Z,18.77
2022-07-26T17:38:53.334Z,17.87
2022-07-26T17:41:23.629Z,18.40
2022-07-26T17:44:02.975Z,17.90
2022-07-26T17:46:32.630Z,17.70
2022-07-26T17:49:02.709Z,17.47
2022-07-26T17:51:30.786Z,17.40
2022-07-26T17:53:58.877Z,17.87
2022-07-26T17:56:27.944Z,17.00
2022-07-26T17:58:56.317Z,16.97
2022-07-26T18:01:24.690Z,16.00
2022-07-26T18:03:53.045Z,17.00
2022-07-26T18:06:22.625Z,15.50
2022-07-26T18:08:53.102Z,17.27
2022-07-26T18:11:21.270Z,16.93
2022-07-26T18:13:51.532Z,16.80
2022-07-26T18:16:19.841Z,16.17
2022-07-26T18:18:48.158Z,16.97
2022-07-26T18:21:16.331Z,16.10
2022-07-26T18:24:06.685Z,16.63
2022-07-26T18:26:36.113Z,16.13
2022-07-26T18:29:04.510Z,16.37
2022-07-26T18:31:32.750Z,14.97
2022-07-26T18:34:06.258Z,16.50
2022-07-26T18:36:34.855Z,16.70
2022-07-26T18:39:09.705Z,16.53
2022-07-26T18:41:38.258Z,17.50
2022-07-26T18:44:06.864Z,16.90
2022-07-26T18:46:35.140Z,17.00
2022-07-26T18:49:03.593Z,16.00
2022-07-26T18:51:33.485Z,15.73
2022-07-26T18:54:01.591Z,16.17
2022-07-26T18:56:33.246Z,16.10
2022-07-26T18:59:01.356Z,15.87
2022-07-26T19:01:31.958Z,16.67
2022-07-26T19:04:04.699Z,15.80
2022-07-26T19:06:38.129Z,22.20
2022-07-26T19:09:06.631Z,16.23
2022-07-26T19:11:37.529Z,15.30
2022-07-26T19:14:06.001Z,16.23
2022-07-26T19:16:34.295Z,15.97
2022-07-26T19:19:02.435Z,15.50
2022-07-26T19:21:30.804Z,15.43
2022-07-26T19:23:58.955Z,16.07
2022-07-26T19:26:27.620Z,16.63
2022-07-26T19:28:59.276Z,16.10
2022-07-26T19:31:27.468Z,15.83
2022-07-26T19:33:55.594Z,16.37
2022-07-26T19:36:26.198Z,16.50
2022-07-26T19:38:55.774Z,16.70
2022-07-26T19:41:24.145Z,16.37
2022-07-26T19:43:52.341Z,16.13
2022-07-26T19:46:21.907Z,13.73
2022-07-26T19:48:50.154Z,14.60
2022-07-26T19:51:18.532Z,16.13
2022-07-26T19:53:46.771Z,16.40
2022-07-26T19:56:15.381Z,16.23
2022-07-26T19:58:43.482Z,15.50
2022-07-26T20:01:11.716Z,15.87
2022-07-26T20:03:41.176Z,15.67
2022-07-26T20:06:09.906Z,15.30
2022-07-26T20:08:38.056Z,15.37
2022-07-26T20:11:06.385Z,16.03
2022-07-26T20:13:35.281Z,15.60
2022-07-26T20:16:03.552Z,14.97
2022-07-26T20:18:33.017Z,15.30
2022-07-26T20:21:02.547Z,17.37
2022-07-26T20:23:30.699Z,19.17
2022-07-26T20:26:01.892Z,17.30
2022-07-26T20:28:32.219Z,16.97
2022-07-26T20:31:02.719Z,16.20
2022-07-26T20:33:32.768Z,16.13
2022-07-26T20:36:02.273Z,17.07
2022-07-26T20:38:30.527Z,16.33
2022-07-26T20:41:02.976Z,16.43
2022-07-26T20:43:32.594Z,16.10
2022-07-26T20:46:02.723Z,16.13
2022-07-26T20:48:30.864Z,16.00
2022-07-26T20:50:58.936Z,15.93
2022-07-26T20:53:30.515Z,16.50
2022-07-26T20:55:58.716Z,16.03
2022-07-26T20:58:26.797Z,15.83
2022-07-26T21:00:55.031Z,15.20
2022-07-26T21:03:26.245Z,16.10
2022-07-26T21:05:54.406Z,16.30
2022-07-26T21:08:22.838Z,16.10
2022-07-26T21:10:52.367Z,16.13
2022-07-26T21:13:23.168Z,15.97
2022-07-26T21:15:53.303Z,16.27
2022-07-26T21:18:21.783Z,16.10
2022-07-26T21:20:49.919Z,16.80
2022-07-26T21:23:18.464Z,16.43
2022-07-26T21:25:47.341Z,15.90
2022-07-26T21:28:19.091Z,16.07
2022-07-26T21:30:47.177Z,16.13
2022-07-26T21:33:15.924Z,15.87
2022-07-26T21:35:43.998Z,15.77
2022-07-26T21:38:12.236Z,15.53
2022-07-26T21:40:40.583Z,15.77
2022-07-26T21:43:11.168Z,15.90
2022-07-26T21:45:41.104Z,16.20
2022-07-26T21:48:09.452Z,16.03
2022-07-26T21:50:37.624Z,15.33
2022-07-26T21:53:05.728Z,15.67
2022-07-26T21:55:33.977Z,16.47
2022-07-26T21:58:02.137Z,15.90
2022-07-26T22:00:32.454Z,16.73
2022-07-26T22:03:01.968Z,17.23
2022-07-26T22:05:37.968Z,16.53
2022-07-26T22:08:10.588Z,16.73
2022-07-26T22:10:44.649Z,16.40
2022-07-26T22:13:16.385Z,16.70
2022-07-26T22:15:44.824Z,16.17
2022-07-26T22:18:15.204Z,16.03
2022-07-26T22:20:47.366Z,16.97
2022-07-26T22:23:15.749Z,16.80
2022-07-26T22:25:44.226Z,17.27
2022-07-26T22:28:18.348Z,16.70
2022-07-26T22:30:47.286Z,16.60
2022-07-26T22:33:17.248Z,16.00
2022-07-26T22:35:45.323Z,16.70
2022-07-26T22:38:13.843Z,17.00
2022-07-26T22:40:43.561Z,16.97
2022-07-26T22:43:12.637Z,17.17
2022-07-26T22:45:43.795Z,16.87
2022-07-26T22:48:12.005Z,16.30
2022-07-26T22:50:41.609Z,16.57
2022-07-26T22:53:09.721Z,17.30
2022-07-26T22:55:38.016Z,16.30
2022-07-26T22:58:06.216Z,16.90
2022-07-26T23:00:34.474Z,17.87
2022-07-26T23:03:02.644Z,17.27
2022-07-26T23:05:45.579Z,16.87
2022-07-26T23:11:07.756Z,15.30
2022-07-26T23:13:35.866Z,15.67
2022-07-26T23:16:04.358Z,15.73
2022-07-26T23:18:34.062Z,15.60
2022-07-26T23:21:03.762Z,16.13
2022-07-26T23:23:36.835Z,15.60
2022-07-26T23:26:07.412Z,16.00
2022-07-26T23:28:38.407Z,16.30
2022-07-26T23:31:10.753Z,16.20
2022-07-26T23:33:52.775Z,16.90
2022-07-26T23:36:26.186Z,17.13
2022-07-26T23:38:56.749Z,16.23
2022-07-26T23:41:25.472Z,16.37
2022-07-26T23:43:54.167Z,16.80
2022-07-26T23:46:22.881Z,16.43
2022-07-26T23:48:51.598Z,16.93
2022-07-26T23:51:20.433Z,16.87
2022-07-26T23:53:48.657Z,17.20
2022-07-26T23:56:18.713Z,16.40
2022-07-26T23:58:47.018Z,16.63
